メインページ
METAR-TAF:

METAR-TAF

空港 :

松本空港

松本, 日本

緯度: 36-10N, 経度: 137-56E, 海抜: 668m

現時点の気象観測

当レポートは1時間34分前の07:00(UTC)に作成
西/北西の風 3kt
気温 4°C
湿度 56%
気圧 1017 hPa
視程10km以上
高度7000ftの雲はほとんどない

METAR: RJAF 130700Z 29003KT 9999 FEW070 04/M04 Q1017

時間: 17:34 (08:34 UTC)


TAF: 見つかりません

4,000以上の空港の気象観測と天気予報(METAR報とTAF報)

利用可能な観測所は地図上に黄色い丸と赤い丸で示す。

丸の上にカーソルを重ねると観測所名を参照できる。

次にクリックすると気象観測と天気予報を参照できる。

マップの切り替え:黒色「×」印の緑ボタンをクリックして拡大、「-」印の緑ボタンをクリックして縮小、緑色の三角印をクリックして隣りの地図に切り替え


METAR-TAF: